Vilnius, Lithuania
Current Conditions -  °F | °C
As of 7:20 AM on Friday 31 Oct 2014 (Local Time) from EYVI Reporting Station
Moderate Fog Moderate Fog  
Wind Chill: 35°   Ceiling: 200
Heat Index: 39°   Visibility: 0.09mi
Dew Point: 39°   Wind: 6mph
Humidity: 100%   Direction: 280°W
Pressure: 30.24"   Gusts: NA
Location:  54.7°N, 25.27°E
Report Text: EYVI 310420Z 28005KT 0150 R02/0600N FG VV002 04/04 Q1024 NOSIG
Loading
Personal Weather Stations






























Interactive Weather Map
Tropical Storm Tracking
New forecast layout! Learn more

10-Day Weather Forecast

Advertisements
Track Severe Weather on mobile